createdAt,value
2023-05-10T03:59:10.224Z,24.00
2023-05-10T04:00:10.152Z,28.00
2023-05-10T04:01:10.143Z,32.00
2023-05-10T04:02:10.183Z,36.00
2023-05-10T04:03:10.194Z,36.00
2023-05-10T04:04:10.191Z,32.00
2023-05-10T04:05:10.119Z,28.00
2023-05-10T04:06:10.149Z,32.00
2023-05-10T04:07:10.099Z,40.00
2023-05-10T04:08:10.095Z,36.00
2023-05-10T04:09:10.119Z,40.00
2023-05-10T04:10:10.077Z,40.00
2023-05-10T04:11:10.079Z,40.00
2023-05-10T04:12:11.105Z,44.00
2023-05-10T04:13:10.112Z,48.00
2023-05-10T04:14:10.054Z,48.00
2023-05-10T04:15:10.066Z,52.00
2023-05-10T04:16:10.064Z,52.00
2023-05-10T04:17:10.185Z,52.00
2023-05-10T04:18:10.068Z,56.00
2023-05-10T04:19:10.041Z,60.00
2023-05-10T04:20:10.035Z,64.00
2023-05-10T04:21:10.050Z,64.00
2023-05-10T04:22:10.032Z,72.00
2023-05-10T04:23:10.015Z,80.00
2023-05-10T04:24:10.032Z,80.00
2023-05-10T04:25:10.049Z,84.00
2023-05-10T04:26:10.016Z,84.00
2023-05-10T04:27:10.025Z,92.00
2023-05-10T04:28:09.993Z,92.00
2023-05-10T04:29:10.028Z,100.00
2023-05-10T04:30:09.992Z,100.00
2023-05-10T04:31:10.081Z,104.00
2023-05-10T04:32:09.982Z,104.00
2023-05-10T04:33:09.983Z,108.00
2023-05-10T04:34:09.996Z,108.00
2023-05-10T04:35:09.975Z,108.00
2023-05-10T04:36:10.036Z,116.00
2023-05-10T04:37:09.974Z,112.00
2023-05-10T04:38:09.980Z,116.00
2023-05-10T04:39:10.000Z,120.00
2023-05-10T04:40:10.001Z,128.00
2023-05-10T04:41:09.968Z,136.00
2023-05-10T04:42:09.953Z,136.00
2023-05-10T04:43:09.957Z,144.00
2023-05-10T04:44:09.956Z,148.00
2023-05-10T04:45:09.942Z,156.00
2023-05-10T04:46:10.013Z,168.00
2023-05-10T04:47:12.007Z,172.00
2023-05-10T04:48:09.995Z,180.00
2023-05-10T04:49:09.928Z,180.00
2023-05-10T04:50:09.961Z,180.00
2023-05-10T04:51:09.934Z,184.00
2023-05-10T04:52:09.942Z,188.00
2023-05-10T04:53:09.974Z,180.00
2023-05-10T04:54:09.944Z,188.00
2023-05-10T04:55:09.908Z,192.00
2023-05-10T04:56:09.914Z,204.00
2023-05-10T04:57:09.906Z,200.00
2023-05-10T04:58:09.909Z,204.00
2023-05-10T04:59:09.890Z,212.00
2023-05-10T05:00:09.909Z,216.00
2023-05-10T05:01:09.910Z,228.00
2023-05-10T05:02:09.946Z,232.00
2023-05-10T05:03:10.009Z,240.00
2023-05-10T05:04:09.904Z,256.00
2023-05-10T05:05:09.896Z,280.00
2023-05-10T05:06:09.902Z,300.00
2023-05-10T05:07:09.880Z,300.00
2023-05-10T05:08:09.885Z,292.00
2023-05-10T05:09:09.869Z,276.00
2023-05-10T05:10:09.855Z,276.00
2023-05-10T05:11:09.869Z,260.00
2023-05-10T05:12:09.857Z,284.00
2023-05-10T05:13:09.906Z,328.00
2023-05-10T05:14:09.842Z,332.00
2023-05-10T05:15:09.998Z,356.00
2023-05-10T05:16:09.856Z,368.00
2023-05-10T05:17:09.844Z,416.00
2023-05-10T05:18:09.893Z,428.00
2023-05-10T05:19:09.868Z,424.00
2023-05-10T05:20:09.854Z,436.00
2023-05-10T05:21:09.859Z,428.00
2023-05-10T05:22:09.819Z,460.00
2023-05-10T05:23:09.823Z,472.00
2023-05-10T05:24:09.833Z,488.00
2023-05-10T05:25:09.826Z,496.00
2023-05-10T05:26:09.805Z,508.00
2023-05-10T05:27:09.825Z,520.00
2023-05-10T05:28:09.809Z,528.00
2023-05-10T05:29:09.842Z,532.00
2023-05-10T05:30:30.808Z,524.00
2023-05-10T05:31:09.875Z,552.00
2023-05-10T05:32:09.891Z,580.00
2023-05-10T05:33:09.850Z,604.00
2023-05-10T05:34:09.827Z,624.00
2023-05-10T05:35:09.792Z,632.00
2023-05-10T05:36:09.789Z,660.00
2023-05-10T05:37:09.791Z,680.00
2023-05-10T05:38:09.775Z,716.00
2023-05-10T05:39:09.802Z,740.00
2023-05-10T05:40:09.863Z,768.00
2023-05-10T05:41:09.883Z,792.00
2023-05-10T05:42:09.748Z,824.00
2023-05-10T05:43:09.771Z,852.00
2023-05-10T05:44:09.836Z,884.00
2023-05-10T05:45:09.776Z,920.00
2023-05-10T05:46:09.802Z,948.00
2023-05-10T05:47:09.851Z,976.00
2023-05-10T05:48:09.791Z,996.00
2023-05-10T05:49:09.741Z,1008.00
2023-05-10T05:50:09.808Z,1024.00
2023-05-10T05:51:09.950Z,1032.00
2023-05-10T05:52:09.768Z,1040.00
2023-05-10T05:53:09.745Z,1056.00
2023-05-10T05:54:09.837Z,1068.00
2023-05-10T05:55:09.713Z,1076.00
2023-05-10T05:56:09.751Z,1096.00
2023-05-10T05:57:09.787Z,1108.00
2023-05-10T05:58:09.752Z,1124.00
2023-05-10T05:59:09.727Z,1128.00
2023-05-10T06:00:09.823Z,1136.00
2023-05-10T06:01:09.723Z,1132.00
2023-05-10T06:02:09.720Z,1160.00
2023-05-10T06:03:09.796Z,1188.00
2023-05-10T06:04:09.729Z,1216.00
2023-05-10T06:05:09.710Z,1252.00
2023-05-10T06:06:09.699Z,1292.00
2023-05-10T06:07:09.697Z,1320.00
2023-05-10T06:08:09.688Z,1336.00
2023-05-10T06:09:09.783Z,1328.00
2023-05-10T06:10:09.686Z,1308.00
2023-05-10T06:11:09.681Z,1292.00
2023-05-10T06:12:09.709Z,1276.00
2023-05-10T06:13:09.712Z,1272.00
2023-05-10T06:14:09.698Z,1284.00
2023-05-10T06:15:09.746Z,1228.00
2023-05-10T06:16:09.683Z,1256.00
2023-05-10T06:17:09.706Z,1340.00
2023-05-10T06:18:09.780Z,1340.00
2023-05-10T06:19:09.702Z,1384.00
2023-05-10T06:20:09.685Z,1380.00
2023-05-10T06:21:09.644Z,1312.00
2023-05-10T06:22:09.660Z,1296.00
2023-05-10T06:23:09.668Z,1168.00
2023-05-10T06:24:09.665Z,1096.00
2023-05-10T06:25:09.654Z,1004.00
2023-05-10T06:26:09.626Z,920.00
2023-05-10T06:27:09.740Z,956.00
2023-05-10T06:28:09.697Z,1056.00
2023-05-10T06:29:09.674Z,1096.00
2023-05-10T06:30:13.302Z,1284.00
2023-05-10T06:31:09.668Z,1372.00
2023-05-10T06:32:09.631Z,1380.00
2023-05-10T06:33:09.656Z,1484.00
2023-05-10T06:34:09.623Z,1468.00
2023-05-10T06:35:09.662Z,1468.00
2023-05-10T06:36:09.711Z,1464.00
2023-05-10T06:37:09.736Z,1496.00
2023-05-10T06:39:42.189Z,1508.00
2023-05-10T06:40:42.109Z,1464.00
2023-05-10T06:41:42.243Z,1336.00
2023-05-10T06:42:42.093Z,1260.00
2023-05-10T06:43:42.099Z,1256.00
2023-05-10T06:44:42.110Z,1240.00
2023-05-10T06:45:42.087Z,1376.00
2023-05-10T06:46:42.186Z,1480.00
2023-05-10T06:47:42.106Z,1664.00
2023-05-10T06:48:42.231Z,1696.00
2023-05-10T06:49:42.157Z,1600.00
2023-05-10T06:50:42.151Z,1496.00
2023-05-10T06:51:42.073Z,1556.00
2023-05-10T06:52:42.086Z,1364.00
2023-05-10T06:53:42.079Z,1184.00
2023-05-10T06:54:42.104Z,1092.00
2023-05-10T06:55:42.169Z,920.00
2023-05-10T06:56:42.051Z,820.00
2023-05-10T06:57:42.083Z,796.00
2023-05-10T06:58:42.086Z,796.00
2023-05-10T06:59:42.075Z,964.00
2023-05-10T07:00:42.146Z,1004.00
2023-05-10T07:01:42.054Z,1000.00
2023-05-10T07:02:42.177Z,1116.00
2023-05-10T07:03:42.031Z,1252.00
2023-05-10T07:04:42.233Z,1396.00
2023-05-10T07:05:42.141Z,1468.00
2023-05-10T07:06:42.059Z,1532.00
2023-05-10T07:07:42.032Z,1496.00
2023-05-10T07:08:42.058Z,1392.00
2023-05-10T07:09:42.024Z,1360.00
2023-05-10T07:10:42.053Z,1312.00
2023-05-10T07:11:42.157Z,1268.00
2023-05-10T07:12:42.187Z,1268.00
2023-05-10T07:13:42.088Z,1336.00
2023-05-10T07:14:42.028Z,1300.00
2023-05-10T07:15:42.011Z,1408.00
2023-05-10T07:16:42.169Z,1600.00
2023-05-10T07:17:44.134Z,1628.00
2023-05-10T07:18:42.086Z,1664.00
2023-05-10T07:19:42.076Z,1576.00
2023-05-10T07:20:41.998Z,1552.00
2023-05-10T07:21:42.000Z,1608.00
2023-05-10T07:22:42.021Z,1624.00
2023-05-10T07:23:43.673Z,1568.00
2023-05-10T07:24:42.003Z,1444.00
2023-05-10T07:25:41.989Z,1528.00
2023-05-10T07:26:42.017Z,1684.00
2023-05-10T07:27:42.027Z,1816.00
2023-05-10T07:28:42.097Z,2048.00
2023-05-10T07:29:42.151Z,2304.00
2023-05-10T07:30:42.020Z,2532.00
2023-05-10T07:31:42.268Z,2816.00
2023-05-10T07:32:42.135Z,2924.00
2023-05-10T07:33:42.052Z,3060.00
2023-05-10T07:34:41.968Z,3160.00
2023-05-10T07:35:42.069Z,3228.00
2023-05-10T07:36:42.026Z,3344.00
2023-05-10T07:37:41.996Z,3400.00
2023-05-10T07:38:41.963Z,3460.00
2023-05-10T07:39:41.966Z,3580.00
2023-05-10T07:40:42.028Z,3428.00
2023-05-10T07:41:41.952Z,3116.00
2023-05-10T07:42:42.021Z,2888.00
2023-05-10T07:43:41.985Z,2712.00
2023-05-10T07:44:42.002Z,2440.00
2023-05-10T07:45:41.950Z,2184.00
2023-05-10T07:46:42.153Z,2216.00
2023-05-10T07:47:42.104Z,2288.00
2023-05-10T07:48:42.085Z,2532.00
2023-05-10T07:49:41.972Z,2476.00
2023-05-10T07:50:41.975Z,2624.00
2023-05-10T07:51:41.949Z,2768.00
2023-05-10T07:52:41.960Z,2932.00
2023-05-10T07:53:42.022Z,3004.00
2023-05-10T07:54:41.982Z,2784.00
2023-05-10T07:55:41.923Z,2736.00
2023-05-10T07:56:42.044Z,2504.00
2023-05-10T07:57:41.971Z,2464.00
2023-05-10T07:58:41.935Z,2524.00
2023-05-10T07:59:42.007Z,2452.00
2023-05-10T08:00:41.953Z,2368.00
2023-05-10T08:01:41.982Z,2236.00
2023-05-10T08:02:42.042Z,2024.00
2023-05-10T08:03:41.963Z,1764.00
2023-05-10T08:04:42.008Z,1644.00
2023-05-10T08:05:41.980Z,1640.00
2023-05-10T08:06:42.006Z,1636.00
2023-05-10T08:07:42.025Z,1620.00
2023-05-10T08:08:42.574Z,1808.00
2023-05-10T08:09:41.901Z,1892.00
2023-05-10T08:10:42.991Z,2084.00
2023-05-10T08:11:41.970Z,2356.00
2023-05-10T08:12:41.925Z,2620.00
2023-05-10T08:13:41.949Z,2668.00
2023-05-10T08:14:41.885Z,2580.00
2023-05-10T08:15:41.966Z,2376.00
2023-05-10T08:16:41.878Z,2164.00
2023-05-10T08:17:41.905Z,2036.00
2023-05-10T08:18:41.981Z,1980.00
2023-05-10T08:19:41.886Z,1856.00
2023-05-10T08:20:41.872Z,1776.00
2023-05-10T08:21:41.901Z,1740.00
2023-05-10T08:22:41.971Z,1776.00
2023-05-10T08:23:41.960Z,1836.00
2023-05-10T08:24:41.904Z,1952.00
2023-05-10T08:25:41.946Z,2172.00
2023-05-10T08:26:41.864Z,2092.00
2023-05-10T08:27:41.879Z,1876.00
2023-05-10T08:28:41.861Z,1732.00
2023-05-10T08:29:49.391Z,1700.00
2023-05-10T08:30:41.888Z,1724.00
2023-05-10T08:31:41.947Z,1708.00
2023-05-10T08:32:41.879Z,1724.00
2023-05-10T08:33:43.778Z,1924.00
2023-05-10T08:34:41.921Z,2508.00
2023-05-10T08:35:41.907Z,2664.00
2023-05-10T08:36:41.888Z,2524.00
2023-05-10T08:37:41.848Z,2300.00
2023-05-10T08:38:41.946Z,2172.00
2023-05-10T08:39:41.931Z,1968.00
2023-05-10T08:40:41.852Z,2104.00
2023-05-10T08:41:41.824Z,2780.00
2023-05-10T08:42:41.821Z,3524.00
2023-05-10T08:43:41.856Z,3860.00
2023-05-10T08:44:41.941Z,4144.00
2023-05-10T08:45:41.847Z,4368.00
2023-05-10T08:46:41.851Z,4356.00
2023-05-10T08:47:41.927Z,4196.00
2023-05-10T08:48:41.822Z,4180.00
2023-05-10T08:49:41.840Z,4208.00
2023-05-10T08:51:42.594Z,4180.00
2023-05-10T08:52:41.828Z,4264.00
2023-05-10T08:53:41.810Z,4304.00
2023-05-10T08:54:41.820Z,4540.00
2023-05-10T08:55:41.807Z,4444.00
2023-05-10T08:56:41.822Z,4328.00
2023-05-10T08:57:41.819Z,4588.00
2023-05-10T08:58:41.843Z,4556.00
2023-05-10T08:59:41.816Z,4404.00
2023-05-10T09:00:41.849Z,4324.00
2023-05-10T09:01:42.609Z,4492.00
2023-05-10T09:02:41.857Z,4552.00
2023-05-10T09:03:41.891Z,4332.00
2023-05-10T09:04:41.885Z,3848.00
2023-05-10T09:05:41.801Z,3872.00
2023-05-10T09:06:41.814Z,5196.00
2023-05-10T09:07:41.795Z,5180.00
2023-05-10T09:09:41.792Z,4536.00
2023-05-10T09:10:41.787Z,4144.00
2023-05-10T09:11:41.875Z,4756.00
2023-05-10T09:12:42.062Z,6596.00
2023-05-10T09:13:41.850Z,6836.00
2023-05-10T09:14:41.847Z,5440.00
2023-05-10T09:15:41.834Z,4456.00
2023-05-10T09:16:41.878Z,2940.00
2023-05-10T09:17:41.795Z,1980.00
2023-05-10T09:21:14.432Z,3152.00
2023-05-10T09:22:14.342Z,3876.00
2023-05-10T09:23:14.339Z,4252.00
2023-05-10T09:24:14.353Z,4644.00
2023-05-10T09:25:14.624Z,5188.00
2023-05-10T09:26:14.394Z,5228.00
2023-05-10T09:27:14.673Z,5364.00
2023-05-10T09:28:14.342Z,5184.00
2023-05-10T09:29:16.022Z,5496.00
2023-05-10T09:30:14.395Z,5672.00
2023-05-10T09:31:14.420Z,6092.00
2023-05-10T09:32:14.353Z,5952.00
2023-05-10T09:33:14.367Z,5768.00
2023-05-10T09:34:14.341Z,5732.00
2023-05-10T09:35:14.498Z,6348.00
2023-05-10T09:36:14.331Z,6172.00
2023-05-10T09:37:14.548Z,6048.00
2023-05-10T09:38:14.473Z,5728.00
2023-05-10T09:39:14.338Z,5240.00
2023-05-10T09:40:14.347Z,4756.00
2023-05-10T09:41:14.573Z,4092.00
2023-05-10T09:42:14.366Z,3468.00
2023-05-10T09:43:14.399Z,2976.00
2023-05-10T09:44:14.350Z,2948.00
2023-05-10T09:45:14.605Z,3088.00
2023-05-10T09:46:14.417Z,3224.00
2023-05-10T09:47:14.351Z,3460.00
2023-05-10T09:48:14.504Z,3580.00
2023-05-10T09:49:14.373Z,3460.00
2023-05-10T09:50:14.331Z,3228.00
2023-05-10T09:51:14.326Z,2996.00
2023-05-10T09:52:14.378Z,2840.00
2023-05-10T09:53:14.381Z,2640.00
2023-05-10T09:54:14.353Z,2316.00
2023-05-10T09:55:14.538Z,2044.00
2023-05-10T09:56:14.345Z,1900.00
2023-05-10T09:57:14.424Z,1808.00
2023-05-10T09:58:14.366Z,1720.00
2023-05-10T09:59:14.996Z,1772.00
2023-05-10T10:00:14.317Z,1920.00
2023-05-10T10:01:14.361Z,2236.00
2023-05-10T10:02:14.330Z,2680.00
2023-05-10T10:13:37.920Z,5384.00
2023-05-10T10:14:37.878Z,5872.00
2023-05-10T10:15:37.876Z,5232.00
2023-05-10T10:16:43.682Z,5440.00
2023-05-10T10:17:37.905Z,5760.00
2023-05-10T10:18:37.924Z,5296.00
2023-05-10T10:19:38.323Z,5040.00
2023-05-10T10:20:37.959Z,5032.00
2023-05-10T10:21:37.895Z,4956.00
2023-05-10T10:22:37.854Z,5040.00
2023-05-10T10:23:37.857Z,5136.00
2023-05-10T10:24:37.872Z,4852.00
2023-05-10T10:25:37.847Z,4732.00
2023-05-10T10:26:37.835Z,4752.00
2023-05-10T10:27:37.839Z,4736.00
2023-05-10T10:28:37.863Z,4544.00
2023-05-10T10:29:37.866Z,3836.00
2023-05-10T10:30:37.862Z,3568.00
2023-05-10T10:31:37.931Z,3808.00
2023-05-10T10:32:37.897Z,4496.00
2023-05-10T10:33:37.848Z,5332.00
2023-05-10T10:34:37.930Z,5996.00
2023-05-10T10:35:37.867Z,4664.00
2023-05-10T10:36:37.864Z,4348.00
2023-05-10T10:37:37.857Z,4704.00
2023-05-10T10:38:37.865Z,5588.00
2023-05-10T10:39:38.011Z,4988.00
2023-05-10T10:40:37.845Z,5464.00
2023-05-10T10:41:37.841Z,6572.00
2023-05-10T10:42:37.837Z,6124.00
2023-05-10T10:43:37.864Z,6340.00
2023-05-10T10:44:37.853Z,6504.00
2023-05-10T10:45:37.878Z,6444.00
2023-05-10T10:46:37.939Z,5976.00
2023-05-10T10:47:37.844Z,5212.00
2023-05-10T10:48:37.876Z,4796.00
2023-05-10T10:49:37.865Z,4640.00
2023-05-10T10:50:37.935Z,4576.00
2023-05-10T10:51:37.881Z,4528.00
2023-05-10T10:52:37.928Z,4044.00
2023-05-10T10:53:37.876Z,3284.00
2023-05-10T10:54:37.908Z,2764.00
2023-05-10T10:55:37.877Z,2472.00
2023-05-10T10:56:37.923Z,3004.00
2023-05-10T10:57:37.845Z,3596.00
2023-05-10T10:58:37.852Z,3760.00
2023-05-10T10:59:37.886Z,3876.00
2023-05-10T11:00:38.011Z,3752.00
2023-05-10T11:01:37.959Z,3544.00
2023-05-10T11:02:37.874Z,3680.00
2023-05-10T11:03:37.874Z,4404.00
2023-05-10T11:04:37.956Z,4976.00
2023-05-10T11:05:37.892Z,5332.00
2023-05-10T11:06:37.850Z,5384.00
2023-05-10T11:07:37.962Z,5064.00
2023-05-10T11:08:38.418Z,5168.00
2023-05-10T11:09:37.885Z,6780.00
2023-05-10T11:10:37.903Z,5684.00
2023-05-10T11:11:37.897Z,6976.00
2023-05-10T11:12:37.864Z,8328.00
2023-05-10T11:13:37.867Z,8240.00
2023-05-10T11:14:37.850Z,7172.00
2023-05-10T11:15:37.921Z,4544.00
2023-05-10T11:16:37.924Z,4736.00
2023-05-10T11:17:37.933Z,5664.00
2023-05-10T11:18:38.046Z,6300.00
2023-05-10T11:19:37.899Z,6084.00
2023-05-10T11:20:37.885Z,7064.00
2023-05-10T11:21:37.855Z,6108.00
2023-05-10T11:22:37.861Z,6240.00
2023-05-10T11:23:37.862Z,5832.00
2023-05-10T11:24:37.900Z,6012.00
2023-05-10T11:25:37.898Z,6112.00
2023-05-10T11:26:37.932Z,6288.00
2023-05-10T11:27:37.899Z,7192.00
2023-05-10T11:28:37.867Z,8024.00
2023-05-10T11:29:37.890Z,8520.00
2023-05-10T11:30:37.924Z,6512.00
2023-05-10T11:31:37.890Z,5960.00
2023-05-10T11:32:37.958Z,5724.00
2023-05-10T11:33:37.905Z,5532.00
2023-05-10T11:34:37.867Z,6000.00
2023-05-10T11:35:37.880Z,7308.00
2023-05-10T11:36:37.948Z,4988.00
2023-05-10T11:37:37.899Z,5108.00
2023-05-10T11:38:37.923Z,4620.00
2023-05-10T11:39:37.903Z,4072.00
2023-05-10T11:40:37.893Z,3956.00
2023-05-10T11:41:37.891Z,3452.00
2023-05-10T11:42:37.906Z,3060.00
2023-05-10T11:43:37.900Z,3120.00
2023-05-10T11:44:37.998Z,3500.00
2023-05-10T11:45:37.930Z,3940.00
2023-05-10T11:46:37.930Z,6936.00
2023-05-10T11:47:37.953Z,6200.00
2023-05-10T11:48:37.903Z,8516.00
2023-05-10T11:49:37.928Z,6200.00
2023-05-10T11:50:38.008Z,7040.00
2023-05-10T11:51:37.924Z,7188.00
2023-05-10T11:52:37.945Z,6508.00
2023-05-10T11:53:37.930Z,6640.00
2023-05-10T11:54:37.970Z,5776.00
2023-05-10T11:55:37.928Z,5764.00
2023-05-10T11:56:37.987Z,6188.00
2023-05-10T11:57:37.959Z,7156.00
2023-05-10T11:58:37.925Z,10784.00
2023-05-10T11:59:37.924Z,11256.00
2023-05-10T12:00:37.939Z,11448.00
2023-05-10T12:01:37.937Z,11624.00
2023-05-10T12:02:38.048Z,7928.00
2023-05-10T12:03:38.037Z,7816.00
2023-05-10T12:04:37.924Z,7704.00
2023-05-10T12:05:37.935Z,7196.00
2023-05-10T12:06:37.925Z,9936.00
2023-05-10T12:07:37.936Z,7072.00
2023-05-10T12:08:37.924Z,10676.00
2023-05-10T12:09:43.770Z,10248.00
2023-05-10T12:10:37.936Z,10324.00
2023-05-10T12:11:37.949Z,10140.00
2023-05-10T12:12:37.975Z,6816.00
2023-05-10T12:13:37.946Z,9772.00
2023-05-10T12:14:38.059Z,10608.00
2023-05-10T12:15:37.949Z,8048.00
2023-05-10T12:16:38.004Z,7820.00
2023-05-10T12:17:37.968Z,9816.00
2023-05-10T12:18:37.994Z,7884.00
2023-05-10T12:19:38.002Z,8952.00
2023-05-10T12:20:37.963Z,11648.00
2023-05-10T12:21:37.997Z,11536.00
2023-05-10T12:22:38.008Z,11596.00
2023-05-10T12:23:37.995Z,11132.00
2023-05-10T12:24:38.001Z,6292.00
2023-05-10T12:25:38.004Z,6108.00
2023-05-10T12:26:37.999Z,6136.00
2023-05-10T12:27:37.982Z,6372.00
2023-05-10T12:28:38.008Z,6520.00
2023-05-10T12:29:38.032Z,6108.00
2023-05-10T12:30:38.009Z,5888.00
2023-05-10T12:31:38.089Z,8024.00
2023-05-10T12:32:38.079Z,10108.00
2023-05-10T12:33:38.000Z,7696.00
2023-05-10T12:34:38.020Z,7012.00
2023-05-10T12:35:38.008Z,11656.00
2023-05-10T12:36:38.032Z,14148.00
2023-05-10T12:37:38.042Z,11852.00
2023-05-10T12:38:38.098Z,8500.00
2023-05-10T12:39:38.037Z,9364.00
2023-05-10T12:40:38.101Z,10048.00
2023-05-10T12:41:38.080Z,10940.00
2023-05-10T12:42:38.080Z,12820.00
2023-05-10T12:43:38.081Z,17064.00
2023-05-10T12:44:38.073Z,16124.00
2023-05-10T12:45:38.097Z,17468.00
2023-05-10T12:46:38.101Z,18240.00
2023-05-10T12:47:38.138Z,12092.00
2023-05-10T12:48:38.075Z,10600.00
2023-05-10T12:49:38.071Z,11596.00
2023-05-10T12:50:38.082Z,14264.00
2023-05-10T12:51:38.095Z,15548.00
2023-05-10T12:52:38.082Z,11720.00
2023-05-10T12:53:38.098Z,13504.00
2023-05-10T12:54:38.103Z,11912.00
2023-05-10T12:55:38.115Z,14940.00
2023-05-10T12:56:38.113Z,12696.00
2023-05-10T12:57:38.097Z,14316.00
2023-05-10T12:58:38.126Z,13592.00
2023-05-10T12:59:38.423Z,10544.00
2023-05-10T13:00:38.118Z,12520.00
2023-05-10T13:01:38.160Z,16336.00
2023-05-10T13:02:38.155Z,21056.00
2023-05-10T13:03:38.158Z,21248.00
2023-05-10T13:04:38.218Z,9532.00
2023-05-10T13:05:38.152Z,16224.00
2023-05-10T13:06:38.162Z,18056.00
2023-05-10T13:07:38.138Z,17992.00
2023-05-10T13:08:38.151Z,13564.00
2023-05-10T13:09:38.156Z,13224.00
2023-05-10T13:10:38.208Z,15860.00
2023-05-10T13:11:38.173Z,24352.00
2023-05-10T13:12:38.156Z,18400.00
2023-05-10T13:13:38.161Z,24384.00
2023-05-10T13:14:38.173Z,18752.00
2023-05-10T13:15:38.177Z,12932.00
2023-05-10T13:16:38.259Z,11492.00
2023-05-10T13:17:38.231Z,14512.00
2023-05-10T13:18:38.245Z,15740.00
2023-05-10T13:19:38.181Z,26720.00
2023-05-10T13:20:38.201Z,26080.00
2023-05-10T13:21:38.223Z,28512.00
2023-05-10T13:22:40.588Z,21248.00
2023-05-10T13:23:38.202Z,29248.00
2023-05-10T13:24:38.230Z,31616.00
2023-05-10T13:25:38.254Z,27200.00
2023-05-10T13:27:48.107Z,29664.00
2023-05-10T16:12:52.718Z,224.00
2023-05-10T16:13:52.660Z,228.00
2023-05-10T16:14:52.657Z,236.00
2023-05-10T16:15:52.661Z,256.00
2023-05-10T16:16:52.769Z,276.00
2023-05-10T16:17:52.734Z,296.00
2023-05-10T16:18:52.879Z,304.00
2023-05-10T16:19:52.662Z,312.00
2023-05-10T16:20:52.643Z,308.00
2023-05-10T16:21:52.649Z,276.00
2023-05-10T16:22:52.658Z,256.00
2023-05-10T16:23:52.662Z,232.00
2023-05-10T16:24:52.645Z,220.00
2023-05-10T16:25:52.636Z,204.00
2023-05-10T16:26:52.694Z,200.00
2023-05-10T16:27:52.653Z,196.00
2023-05-10T16:28:52.660Z,200.00
2023-05-10T16:29:52.637Z,204.00
2023-05-10T16:30:52.931Z,208.00
2023-05-10T16:31:52.712Z,200.00
2023-05-10T16:32:52.742Z,180.00
2023-05-10T16:33:52.625Z,168.00
2023-05-10T16:34:52.637Z,168.00
2023-05-10T16:35:52.673Z,176.00
2023-05-10T16:36:52.655Z,188.00
2023-05-10T16:37:52.668Z,200.00
2023-05-10T16:38:52.640Z,188.00
2023-05-10T16:39:52.640Z,188.00
2023-05-10T16:40:52.624Z,208.00
2023-05-10T16:41:52.645Z,216.00
2023-05-10T16:42:52.639Z,220.00
2023-05-10T16:43:52.633Z,208.00
2023-05-10T16:44:52.678Z,196.00
2023-05-10T16:45:52.686Z,180.00
2023-05-10T16:46:52.659Z,176.00
2023-05-10T16:47:52.661Z,176.00
2023-05-10T16:48:52.622Z,192.00
2023-05-10T16:49:52.628Z,212.00
2023-05-10T16:50:52.631Z,240.00
2023-05-10T16:51:52.636Z,256.00
2023-05-10T16:52:52.620Z,236.00
2023-05-10T16:53:52.619Z,216.00
2023-05-10T16:54:52.613Z,196.00
2023-05-10T16:55:52.626Z,188.00
2023-05-10T16:56:52.617Z,180.00
2023-05-10T16:57:52.632Z,168.00
2023-05-10T16:58:52.661Z,160.00
2023-05-10T16:59:52.621Z,168.00
2023-05-10T17:00:52.657Z,176.00
2023-05-10T17:01:52.612Z,172.00
2023-05-10T17:02:52.830Z,168.00
2023-05-10T17:03:52.639Z,168.00
2023-05-10T17:04:52.620Z,164.00
2023-05-10T17:05:52.617Z,164.00
2023-05-10T17:06:52.593Z,168.00
2023-05-10T17:07:52.614Z,168.00
2023-05-10T17:08:52.610Z,172.00
2023-05-10T17:09:52.626Z,176.00
2023-05-10T17:10:52.613Z,184.00
2023-05-10T17:11:52.592Z,180.00
2023-05-10T17:12:52.581Z,164.00
2023-05-10T17:13:52.591Z,148.00
2023-05-10T17:14:53.455Z,148.00
2023-05-10T17:15:52.785Z,164.00
2023-05-10T17:16:52.867Z,180.00
2023-05-10T17:17:52.611Z,184.00
2023-05-10T17:18:52.654Z,192.00
2023-05-10T17:19:52.582Z,196.00
2023-05-10T17:20:52.612Z,196.00
2023-05-10T17:21:52.580Z,192.00
2023-05-10T17:22:52.584Z,196.00
2023-05-10T17:23:52.583Z,212.00
2023-05-10T17:24:52.601Z,240.00
2023-05-10T17:25:52.601Z,240.00
2023-05-10T17:26:52.578Z,232.00
2023-05-10T17:27:52.576Z,216.00
2023-05-10T17:28:52.578Z,204.00
2023-05-10T17:29:52.582Z,188.00
2023-05-10T17:30:52.612Z,180.00
2023-05-10T17:31:52.721Z,172.00
2023-05-10T17:32:52.663Z,172.00
2023-05-10T17:33:52.556Z,180.00
2023-05-10T17:34:52.573Z,200.00
2023-05-10T17:35:52.579Z,204.00
2023-05-10T17:36:52.569Z,192.00
2023-05-10T17:37:52.576Z,176.00
2023-05-10T17:38:52.552Z,172.00
2023-05-10T17:39:52.560Z,156.00
2023-05-10T17:40:52.554Z,140.00
2023-05-10T17:41:52.559Z,136.00
2023-05-10T17:42:52.543Z,140.00
2023-05-10T17:43:52.651Z,140.00
2023-05-10T17:44:52.541Z,136.00
2023-05-10T17:45:52.633Z,140.00
2023-05-10T17:46:52.538Z,136.00
2023-05-10T17:47:52.617Z,144.00
2023-05-10T17:48:52.545Z,144.00
2023-05-10T17:49:52.545Z,144.00
2023-05-10T17:50:52.546Z,140.00
2023-05-10T17:51:52.524Z,132.00
2023-05-10T17:52:52.539Z,124.00
2023-05-10T17:53:52.537Z,104.00
2023-05-10T17:54:52.544Z,92.00
2023-05-10T17:55:52.526Z,84.00
2023-05-10T17:56:52.529Z,76.00
2023-05-10T17:57:52.536Z,76.00
2023-05-10T17:58:52.520Z,80.00
2023-05-10T17:59:52.509Z,80.00
2023-05-10T18:00:52.743Z,80.00
2023-05-10T18:01:52.509Z,84.00
2023-05-10T18:02:52.555Z,88.00
2023-05-10T18:03:52.514Z,88.00
2023-05-10T18:04:52.689Z,80.00
2023-05-10T18:05:52.533Z,80.00
2023-05-10T18:06:52.496Z,84.00
2023-05-10T18:07:52.504Z,84.00
2023-05-10T18:08:52.503Z,92.00
2023-05-10T18:09:52.496Z,100.00
2023-05-10T18:10:52.514Z,108.00
2023-05-10T18:11:52.490Z,112.00
2023-05-10T18:12:52.583Z,116.00
2023-05-10T18:13:52.486Z,116.00
2023-05-10T18:14:52.503Z,108.00
2023-05-10T18:15:52.534Z,100.00
2023-05-10T18:16:52.543Z,88.00
2023-05-10T18:17:52.530Z,80.00
2023-05-10T18:18:52.502Z,72.00
2023-05-10T18:19:52.631Z,60.00
2023-05-10T18:20:52.533Z,56.00
2023-05-10T18:21:52.468Z,52.00
2023-05-10T18:22:52.469Z,48.00
2023-05-10T18:23:52.473Z,40.00
2023-05-10T18:24:52.464Z,32.00
2023-05-10T18:25:52.491Z,32.00
2023-05-10T18:26:52.449Z,28.00
2023-05-10T18:27:52.523Z,28.00
2023-05-10T18:28:52.452Z,28.00
2023-05-10T18:29:52.457Z,24.00
2023-05-10T18:30:52.485Z,24.00
2023-05-10T18:31:52.464Z,20.00
2023-05-10T18:32:52.487Z,24.00
2023-05-10T18:33:52.441Z,24.00
2023-05-10T18:34:54.981Z,24.00
2023-05-10T18:35:52.450Z,24.00
2023-05-10T18:36:52.471Z,24.00
2023-05-10T18:37:52.435Z,24.00
2023-05-10T18:38:52.425Z,24.00
2023-05-10T18:39:52.416Z,20.00
2023-05-10T18:40:52.442Z,24.00
2023-05-10T18:41:52.405Z,24.00
2023-05-10T18:42:52.412Z,20.00
2023-05-10T18:43:52.424Z,20.00
2023-05-10T18:44:52.402Z,20.00
2023-05-10T18:45:52.446Z,20.00
2023-05-10T18:46:53.928Z,24.00
2023-05-10T18:47:52.454Z,20.00
2023-05-10T18:48:52.399Z,16.00
2023-05-10T18:49:52.423Z,16.00
2023-05-10T18:50:52.399Z,20.00
2023-05-10T18:51:52.411Z,16.00
2023-05-10T18:52:52.414Z,16.00
2023-05-10T18:53:52.407Z,16.00
2023-05-10T18:54:52.380Z,16.00
2023-05-10T18:55:52.379Z,16.00
2023-05-10T18:56:52.370Z,12.00
2023-05-10T18:57:52.384Z,12.00
2023-05-10T18:58:52.365Z,12.00
2023-05-10T18:59:52.377Z,12.00
2023-05-10T19:00:52.380Z,8.00
2023-05-10T19:01:54.187Z,12.00
2023-05-10T19:02:52.387Z,8.00
2023-05-10T19:03:52.352Z,8.00
2023-05-10T19:04:52.440Z,8.00
2023-05-10T19:05:52.358Z,8.00
2023-05-10T19:06:52.343Z,8.00
2023-05-10T19:07:52.357Z,4.00
2023-05-10T19:08:52.362Z,8.00
2023-05-10T19:09:52.357Z,4.00
2023-05-10T19:10:52.354Z,4.00
2023-05-10T19:11:52.335Z,4.00
2023-05-10T19:12:52.390Z,4.00
2023-05-10T19:13:52.350Z,4.00
2023-05-10T19:14:52.359Z,4.00
2023-05-10T19:15:52.335Z,4.00
2023-05-10T19:17:52.365Z,4.00